sensor_id;sensor_type;location;lat;lon;timestamp;temperature;humidity
22716;DHT22;11525;51.152;4.456;2023-12-20T00:01:49;6.90;99.90
22716;DHT22;11525;51.152;4.456;2023-12-20T00:04:15;6.80;99.90
22716;DHT22;11525;51.152;4.456;2023-12-20T00:06:41;6.70;99.90
22716;DHT22;11525;51.152;4.456;2023-12-20T00:09:07;6.80;99.90
22716;DHT22;11525;51.152;4.456;2023-12-20T00:11:32;6.90;99.90
22716;DHT22;11525;51.152;4.456;2023-12-20T00:13:58;7.00;99.90
22716;DHT22;11525;51.152;4.456;2023-12-20T00:16:24;7.00;99.90
22716;DHT22;11525;51.152;4.456;2023-12-20T00:18:50;7.10;99.90
22716;DHT22;11525;51.152;4.456;2023-12-20T00:21:16;7.10;99.90
22716;DHT22;11525;51.152;4.456;2023-12-20T00:23:42;7.20;99.90
22716;DHT22;11525;51.152;4.456;2023-12-20T00:26:07;7.10;99.90
22716;DHT22;11525;51.152;4.456;2023-12-20T00:28:33;7.00;99.90
22716;DHT22;11525;51.152;4.456;2023-12-20T00:30:59;7.00;99.90
22716;DHT22;11525;51.152;4.456;2023-12-20T00:33:25;7.00;99.90
22716;DHT22;11525;51.152;4.456;2023-12-20T00:35:51;6.90;99.90
22716;DHT22;11525;51.152;4.456;2023-12-20T00:38:17;6.90;99.90
22716;DHT22;11525;51.152;4.456;2023-12-20T00:40:42;7.00;99.90
22716;DHT22;11525;51.152;4.456;2023-12-20T00:43:08;6.90;99.90
22716;DHT22;11525;51.152;4.456;2023-12-20T00:45:34;6.90;99.90
22716;DHT22;11525;51.152;4.456;2023-12-20T00:47:59;6.70;99.90
22716;DHT22;11525;51.152;4.456;2023-12-20T00:50:25;6.80;99.90
22716;DHT22;11525;51.152;4.456;2023-12-20T00:52:51;6.80;99.90
22716;DHT22;11525;51.152;4.456;2023-12-20T00:55:17;6.80;99.90
22716;DHT22;11525;51.152;4.456;2023-12-20T00:57:42;6.70;99.90
22716;DHT22;11525;51.152;4.456;2023-12-20T01:00:08;6.70;99.90
22716;DHT22;11525;51.152;4.456;2023-12-20T01:02:38;6.70;99.90
22716;DHT22;11525;51.152;4.456;2023-12-20T01:05:04;6.60;99.90
22716;DHT22;11525;51.152;4.456;2023-12-20T01:07:30;6.70;99.90
22716;DHT22;11525;51.152;4.456;2023-12-20T01:09:56;6.70;99.90
22716;DHT22;11525;51.152;4.456;2023-12-20T01:12:22;6.70;99.90
22716;DHT22;11525;51.152;4.456;2023-12-20T01:14:47;6.80;99.90
22716;DHT22;11525;51.152;4.456;2023-12-20T01:17:13;6.80;99.90
22716;DHT22;11525;51.152;4.456;2023-12-20T01:19:39;6.80;99.90
22716;DHT22;11525;51.152;4.456;2023-12-20T01:22:05;6.80;99.90
22716;DHT22;11525;51.152;4.456;2023-12-20T01:24:31;6.70;99.90
22716;DHT22;11525;51.152;4.456;2023-12-20T01:26:56;6.70;99.90
22716;DHT22;11525;51.152;4.456;2023-12-20T01:29:22;6.60;99.90
22716;DHT22;11525;51.152;4.456;2023-12-20T01:31:48;6.50;99.90
22716;DHT22;11525;51.152;4.456;2023-12-20T01:34:14;6.50;99.90
22716;DHT22;11525;51.152;4.456;2023-12-20T01:36:40;6.50;99.90
22716;DHT22;11525;51.152;4.456;2023-12-20T01:39:05;6.50;99.90
22716;DHT22;11525;51.152;4.456;2023-12-20T01:41:31;6.60;99.90
22716;DHT22;11525;51.152;4.456;2023-12-20T01:43:57;6.60;99.90
22716;DHT22;11525;51.152;4.456;2023-12-20T01:46:23;6.50;99.90
22716;DHT22;11525;51.152;4.456;2023-12-20T01:48:50;6.50;99.90
22716;DHT22;11525;51.152;4.456;2023-12-20T01:51:16;6.50;99.90
22716;DHT22;11525;51.152;4.456;2023-12-20T01:53:42;6.50;99.90
22716;DHT22;11525;51.152;4.456;2023-12-20T01:56:08;6.50;99.90
22716;DHT22;11525;51.152;4.456;2023-12-20T01:58:39;6.40;99.90
22716;DHT22;11525;51.152;4.456;2023-12-20T02:01:09;6.30;99.90
22716;DHT22;11525;51.152;4.456;2023-12-20T02:03:35;6.30;99.90
22716;DHT22;11525;51.152;4.456;2023-12-20T02:06:03;6.50;99.90
22716;DHT22;11525;51.152;4.456;2023-12-20T02:08:29;6.60;99.90
22716;DHT22;11525;51.152;4.456;2023-12-20T02:10:56;6.60;99.90
22716;DHT22;11525;51.152;4.456;2023-12-20T02:13:24;6.70;99.90
22716;DHT22;11525;51.152;4.456;2023-12-20T02:15:52;6.60;99.90
22716;DHT22;11525;51.152;4.456;2023-12-20T02:18:18;6.60;99.90
22716;DHT22;11525;51.152;4.456;2023-12-20T02:20:44;6.60;99.90
22716;DHT22;11525;51.152;4.456;2023-12-20T02:23:10;6.60;99.90
22716;DHT22;11525;51.152;4.456;2023-12-20T02:25:35;6.70;99.90
22716;DHT22;11525;51.152;4.456;2023-12-20T02:28:03;6.80;99.90
22716;DHT22;11525;51.152;4.456;2023-12-20T02:30:29;7.00;99.90
22716;DHT22;11525;51.152;4.456;2023-12-20T02:32:55;7.10;99.90
22716;DHT22;11525;51.152;4.456;2023-12-20T02:35:21;7.20;99.90
22716;DHT22;11525;51.152;4.456;2023-12-20T02:37:47;7.20;99.90
22716;DHT22;11525;51.152;4.456;2023-12-20T02:40:12;7.30;99.90
22716;DHT22;11525;51.152;4.456;2023-12-20T02:42:38;7.40;99.90
22716;DHT22;11525;51.152;4.456;2023-12-20T02:45:04;7.40;99.90
22716;DHT22;11525;51.152;4.456;2023-12-20T02:47:30;7.10;99.90
22716;DHT22;11525;51.152;4.456;2023-12-20T02:49:56;7.00;99.90
22716;DHT22;11525;51.152;4.456;2023-12-20T02:52:25;7.00;99.90
22716;DHT22;11525;51.152;4.456;2023-12-20T02:54:51;6.90;99.90
22716;DHT22;11525;51.152;4.456;2023-12-20T02:57:17;7.00;99.90
22716;DHT22;11525;51.152;4.456;2023-12-20T02:59:42;7.10;99.90
22716;DHT22;11525;51.152;4.456;2023-12-20T03:02:08;7.10;99.90
22716;DHT22;11525;51.152;4.456;2023-12-20T03:04:37;7.20;99.90
22716;DHT22;11525;51.152;4.456;2023-12-20T03:07:02;7.10;99.90
22716;DHT22;11525;51.152;4.456;2023-12-20T03:09:28;7.10;99.90
22716;DHT22;11525;51.152;4.456;2023-12-20T03:11:54;7.20;99.90
22716;DHT22;11525;51.152;4.456;2023-12-20T03:14:20;7.30;99.90
22716;DHT22;11525;51.152;4.456;2023-12-20T03:16:52;7.30;99.90
22716;DHT22;11525;51.152;4.456;2023-12-20T03:19:18;7.20;99.90
22716;DHT22;11525;51.152;4.456;2023-12-20T03:21:46;7.20;99.90
22716;DHT22;11525;51.152;4.456;2023-12-20T03:24:12;7.20;99.90
22716;DHT22;11525;51.152;4.456;2023-12-20T03:26:38;7.20;99.90
22716;DHT22;11525;51.152;4.456;2023-12-20T03:29:06;7.20;99.90
22716;DHT22;11525;51.152;4.456;2023-12-20T03:31:32;7.40;99.90
22716;DHT22;11525;51.152;4.456;2023-12-20T03:33:58;7.40;99.90
22716;DHT22;11525;51.152;4.456;2023-12-20T03:36:24;7.50;99.90
22716;DHT22;11525;51.152;4.456;2023-12-20T03:38:50;7.40;99.90
22716;DHT22;11525;51.152;4.456;2023-12-20T03:41:15;7.40;99.90
22716;DHT22;11525;51.152;4.456;2023-12-20T03:43:41;7.30;99.90
22716;DHT22;11525;51.152;4.456;2023-12-20T03:46:08;7.40;99.90
22716;DHT22;11525;51.152;4.456;2023-12-20T03:48:34;7.30;99.90
22716;DHT22;11525;51.152;4.456;2023-12-20T03:51:00;7.30;99.90
22716;DHT22;11525;51.152;4.456;2023-12-20T03:53:25;7.30;99.90
22716;DHT22;11525;51.152;4.456;2023-12-20T03:55:51;7.30;99.90
22716;DHT22;11525;51.152;4.456;2023-12-20T03:58:17;7.30;99.90
22716;DHT22;11525;51.152;4.456;2023-12-20T04:00:43;7.20;99.90
22716;DHT22;11525;51.152;4.456;2023-12-20T04:03:08;7.10;99.90
22716;DHT22;11525;51.152;4.456;2023-12-20T04:05:34;7.30;99.90
22716;DHT22;11525;51.152;4.456;2023-12-20T04:08:01;7.20;99.90
22716;DHT22;11525;51.152;4.456;2023-12-20T04:10:29;7.10;99.90
22716;DHT22;11525;51.152;4.456;2023-12-20T04:12:55;7.00;99.90
22716;DHT22;11525;51.152;4.456;2023-12-20T04:15:21;6.90;99.90
22716;DHT22;11525;51.152;4.456;2023-12-20T04:17:47;6.90;99.90
22716;DHT22;11525;51.152;4.456;2023-12-20T04:20:13;6.80;99.90
22716;DHT22;11525;51.152;4.456;2023-12-20T04:22:38;6.80;99.90
22716;DHT22;11525;51.152;4.456;2023-12-20T04:25:04;6.80;99.90
22716;DHT22;11525;51.152;4.456;2023-12-20T04:27:30;6.80;99.90
22716;DHT22;11525;51.152;4.456;2023-12-20T04:29:56;6.80;99.90
22716;DHT22;11525;51.152;4.456;2023-12-20T04:32:22;6.90;99.90
22716;DHT22;11525;51.152;4.456;2023-12-20T04:34:48;6.90;99.90
22716;DHT22;11525;51.152;4.456;2023-12-20T04:37:14;7.10;99.90
22716;DHT22;11525;51.152;4.456;2023-12-20T04:39:39;7.20;99.90
22716;DHT22;11525;51.152;4.456;2023-12-20T04:42:07;7.10;99.90
22716;DHT22;11525;51.152;4.456;2023-12-20T04:44:33;7.10;99.90
22716;DHT22;11525;51.152;4.456;2023-12-20T04:46:58;7.30;99.90
22716;DHT22;11525;51.152;4.456;2023-12-20T04:49:24;7.20;99.90
22716;DHT22;11525;51.152;4.456;2023-12-20T04:51:50;7.20;99.90
22716;DHT22;11525;51.152;4.456;2023-12-20T04:54:16;7.30;99.90
22716;DHT22;11525;51.152;4.456;2023-12-20T04:56:41;7.20;99.90
22716;DHT22;11525;51.152;4.456;2023-12-20T04:59:07;7.10;99.90
22716;DHT22;11525;51.152;4.456;2023-12-20T05:01:33;7.00;99.90
22716;DHT22;11525;51.152;4.456;2023-12-20T05:03:59;6.90;99.90
22716;DHT22;11525;51.152;4.456;2023-12-20T05:06:25;7.00;99.90
22716;DHT22;11525;51.152;4.456;2023-12-20T05:08:51;7.00;99.90
22716;DHT22;11525;51.152;4.456;2023-12-20T05:11:17;7.00;99.90
22716;DHT22;11525;51.152;4.456;2023-12-20T05:13:43;7.20;99.90
22716;DHT22;11525;51.152;4.456;2023-12-20T05:16:08;7.10;99.90
22716;DHT22;11525;51.152;4.456;2023-12-20T05:18:34;7.10;99.90
22716;DHT22;11525;51.152;4.456;2023-12-20T05:21:00;7.10;99.90
22716;DHT22;11525;51.152;4.456;2023-12-20T05:23:26;6.90;99.90
22716;DHT22;11525;51.152;4.456;2023-12-20T05:25:52;6.90;99.90
22716;DHT22;11525;51.152;4.456;2023-12-20T05:28:18;6.90;99.90
22716;DHT22;11525;51.152;4.456;2023-12-20T05:30:44;6.80;99.90
22716;DHT22;11525;51.152;4.456;2023-12-20T05:33:10;6.80;99.90
22716;DHT22;11525;51.152;4.456;2023-12-20T05:35:35;6.80;99.90
22716;DHT22;11525;51.152;4.456;2023-12-20T05:38:01;6.90;99.90
22716;DHT22;11525;51.152;4.456;2023-12-20T05:40:27;7.10;99.90
22716;DHT22;11525;51.152;4.456;2023-12-20T05:42:54;7.00;99.90
22716;DHT22;11525;51.152;4.456;2023-12-20T05:45:20;6.90;99.90
22716;DHT22;11525;51.152;4.456;2023-12-20T05:47:46;6.80;99.90
22716;DHT22;11525;51.152;4.456;2023-12-20T05:50:12;6.60;99.90
22716;DHT22;11525;51.152;4.456;2023-12-20T05:52:40;6.60;99.90
22716;DHT22;11525;51.152;4.456;2023-12-20T05:55:06;6.70;99.90
22716;DHT22;11525;51.152;4.456;2023-12-20T05:57:32;6.70;99.90
22716;DHT22;11525;51.152;4.456;2023-12-20T05:59:58;7.00;99.90
22716;DHT22;11525;51.152;4.456;2023-12-20T06:02:23;7.30;99.90
22716;DHT22;11525;51.152;4.456;2023-12-20T06:04:49;7.10;99.90
22716;DHT22;11525;51.152;4.456;2023-12-20T06:07:21;7.10;99.90
22716;DHT22;11525;51.152;4.456;2023-12-20T06:10:16;7.10;99.90
22716;DHT22;11525;51.152;4.456;2023-12-20T06:12:42;7.20;99.90
22716;DHT22;11525;51.152;4.456;2023-12-20T06:15:08;7.10;99.90
22716;DHT22;11525;51.152;4.456;2023-12-20T06:17:34;7.20;99.90
22716;DHT22;11525;51.152;4.456;2023-12-20T06:20:01;7.10;99.90
22716;DHT22;11525;51.152;4.456;2023-12-20T06:22:26;7.20;99.90
22716;DHT22;11525;51.152;4.456;2023-12-20T06:24:52;7.20;99.90
22716;DHT22;11525;51.152;4.456;2023-12-20T06:27:18;7.10;99.90
22716;DHT22;11525;51.152;4.456;2023-12-20T06:29:44;7.10;99.90
22716;DHT22;11525;51.152;4.456;2023-12-20T06:32:10;7.20;99.90
22716;DHT22;11525;51.152;4.456;2023-12-20T06:34:36;7.20;99.90
22716;DHT22;11525;51.152;4.456;2023-12-20T06:37:03;7.00;99.90
22716;DHT22;11525;51.152;4.456;2023-12-20T06:39:30;7.00;99.90
22716;DHT22;11525;51.152;4.456;2023-12-20T06:41:56;6.90;99.90
22716;DHT22;11525;51.152;4.456;2023-12-20T06:44:22;6.90;99.90
22716;DHT22;11525;51.152;4.456;2023-12-20T06:46:47;7.10;99.90
22716;DHT22;11525;51.152;4.456;2023-12-20T06:49:13;7.00;99.90
22716;DHT22;11525;51.152;4.456;2023-12-20T06:51:39;6.90;99.90
22716;DHT22;11525;51.152;4.456;2023-12-20T06:54:04;7.00;99.90
22716;DHT22;11525;51.152;4.456;2023-12-20T06:56:30;6.90;99.90
22716;DHT22;11525;51.152;4.456;2023-12-20T06:58:56;6.90;99.90
22716;DHT22;11525;51.152;4.456;2023-12-20T07:01:22;6.90;99.90
22716;DHT22;11525;51.152;4.456;2023-12-20T07:03:48;7.00;99.90
22716;DHT22;11525;51.152;4.456;2023-12-20T07:06:13;7.00;99.90
22716;DHT22;11525;51.152;4.456;2023-12-20T07:08:41;7.00;99.90
22716;DHT22;11525;51.152;4.456;2023-12-20T07:11:07;6.90;99.90
22716;DHT22;11525;51.152;4.456;2023-12-20T07:13:33;6.80;99.90
22716;DHT22;11525;51.152;4.456;2023-12-20T07:16:01;6.70;99.90
22716;DHT22;11525;51.152;4.456;2023-12-20T07:18:27;7.10;99.90
22716;DHT22;11525;51.152;4.456;2023-12-20T07:20:53;7.50;99.90
22716;DHT22;11525;51.152;4.456;2023-12-20T07:23:20;7.50;99.90
22716;DHT22;11525;51.152;4.456;2023-12-20T07:25:45;7.30;99.90
22716;DHT22;11525;51.152;4.456;2023-12-20T07:28:11;7.10;99.90
22716;DHT22;11525;51.152;4.456;2023-12-20T07:30:37;6.90;99.90
22716;DHT22;11525;51.152;4.456;2023-12-20T07:33:03;6.80;99.90
22716;DHT22;11525;51.152;4.456;2023-12-20T07:35:28;6.90;99.90
22716;DHT22;11525;51.152;4.456;2023-12-20T07:37:54;7.00;99.90
22716;DHT22;11525;51.152;4.456;2023-12-20T07:40:20;6.80;99.90
22716;DHT22;11525;51.152;4.456;2023-12-20T07:42:46;6.70;99.90
22716;DHT22;11525;51.152;4.456;2023-12-20T07:45:11;6.80;99.90
22716;DHT22;11525;51.152;4.456;2023-12-20T07:47:37;6.80;99.90
22716;DHT22;11525;51.152;4.456;2023-12-20T07:50:03;6.70;99.90
22716;DHT22;11525;51.152;4.456;2023-12-20T07:52:30;6.80;99.90
22716;DHT22;11525;51.152;4.456;2023-12-20T07:54:55;6.70;99.90
22716;DHT22;11525;51.152;4.456;2023-12-20T07:57:21;6.80;99.90
22716;DHT22;11525;51.152;4.456;2023-12-20T07:59:47;6.70;99.90
22716;DHT22;11525;51.152;4.456;2023-12-20T08:02:13;6.60;99.90
22716;DHT22;11525;51.152;4.456;2023-12-20T08:04:38;6.60;99.90
22716;DHT22;11525;51.152;4.456;2023-12-20T08:07:04;6.70;99.90
22716;DHT22;11525;51.152;4.456;2023-12-20T08:09:30;6.80;99.90
22716;DHT22;11525;51.152;4.456;2023-12-20T08:11:57;6.80;99.90
22716;DHT22;11525;51.152;4.456;2023-12-20T08:14:25;7.00;99.90
22716;DHT22;11525;51.152;4.456;2023-12-20T08:16:51;7.10;99.90
22716;DHT22;11525;51.152;4.456;2023-12-20T08:19:16;7.00;99.90
22716;DHT22;11525;51.152;4.456;2023-12-20T08:21:42;7.20;99.90
22716;DHT22;11525;51.152;4.456;2023-12-20T08:24:08;7.20;99.90
22716;DHT22;11525;51.152;4.456;2023-12-20T08:26:34;7.30;99.90
22716;DHT22;11525;51.152;4.456;2023-12-20T08:28:59;7.20;99.90
22716;DHT22;11525;51.152;4.456;2023-12-20T08:31:25;7.00;99.90
22716;DHT22;11525;51.152;4.456;2023-12-20T08:33:51;7.20;99.90
22716;DHT22;11525;51.152;4.456;2023-12-20T08:36:19;7.20;99.90
22716;DHT22;11525;51.152;4.456;2023-12-20T08:38:48;7.10;99.90
22716;DHT22;11525;51.152;4.456;2023-12-20T08:41:13;7.10;99.90
22716;DHT22;11525;51.152;4.456;2023-12-20T08:43:39;7.10;99.90
22716;DHT22;11525;51.152;4.456;2023-12-20T08:46:08;7.30;99.90
22716;DHT22;11525;51.152;4.456;2023-12-20T08:48:35;7.80;99.90
22716;DHT22;11525;51.152;4.456;2023-12-20T08:51:01;8.00;99.90
22716;DHT22;11525;51.152;4.456;2023-12-20T08:53:27;8.30;99.90
22716;DHT22;11525;51.152;4.456;2023-12-20T08:55:52;8.70;99.90
22716;DHT22;11525;51.152;4.456;2023-12-20T08:58:18;9.00;99.90
22716;DHT22;11525;51.152;4.456;2023-12-20T09:00:44;9.40;99.90
22716;DHT22;11525;51.152;4.456;2023-12-20T09:03:10;9.80;99.90
22716;DHT22;11525;51.152;4.456;2023-12-20T09:05:36;10.00;99.90
22716;DHT22;11525;51.152;4.456;2023-12-20T09:08:02;10.20;99.90
22716;DHT22;11525;51.152;4.456;2023-12-20T09:10:27;10.60;99.90
22716;DHT22;11525;51.152;4.456;2023-12-20T09:12:54;10.60;99.90
22716;DHT22;11525;51.152;4.456;2023-12-20T09:15:23;10.80;99.90
22716;DHT22;11525;51.152;4.456;2023-12-20T09:17:49;10.90;99.90
22716;DHT22;11525;51.152;4.456;2023-12-20T09:20:15;11.10;99.90
22716;DHT22;11525;51.152;4.456;2023-12-20T09:22:41;11.60;99.90
22716;DHT22;11525;51.152;4.456;2023-12-20T09:25:09;12.10;99.90
22716;DHT22;11525;51.152;4.456;2023-12-20T09:27:35;12.60;99.90
22716;DHT22;11525;51.152;4.456;2023-12-20T09:30:01;12.80;99.90
22716;DHT22;11525;51.152;4.456;2023-12-20T09:32:27;12.70;99.90
22716;DHT22;11525;51.152;4.456;2023-12-20T09:34:52;13.20;99.90
22716;DHT22;11525;51.152;4.456;2023-12-20T09:37:18;13.80;99.90
22716;DHT22;11525;51.152;4.456;2023-12-20T09:39:44;14.20;99.90
22716;DHT22;11525;51.152;4.456;2023-12-20T09:42:11;13.80;99.90
22716;DHT22;11525;51.152;4.456;2023-12-20T09:44:42;12.70;99.90
22716;DHT22;11525;51.152;4.456;2023-12-20T09:47:10;12.70;99.90
22716;DHT22;11525;51.152;4.456;2023-12-20T09:49:37;13.10;99.90
22716;DHT22;11525;51.152;4.456;2023-12-20T09:52:05;13.00;99.90
22716;DHT22;11525;51.152;4.456;2023-12-20T09:54:32;11.90;99.90
22716;DHT22;11525;51.152;4.456;2023-12-20T09:56:58;11.70;99.90
22716;DHT22;11525;51.152;4.456;2023-12-20T09:59:23;11.70;99.90
22716;DHT22;11525;51.152;4.456;2023-12-20T10:01:50;12.30;99.90
22716;DHT22;11525;51.152;4.456;2023-12-20T10:04:17;12.40;99.90
22716;DHT22;11525;51.152;4.456;2023-12-20T10:06:43;12.40;99.90
22716;DHT22;11525;51.152;4.456;2023-12-20T10:09:12;12.00;99.90
22716;DHT22;11525;51.152;4.456;2023-12-20T10:11:39;11.30;99.90
22716;DHT22;11525;51.152;4.456;2023-12-20T10:14:05;11.30;99.90
22716;DHT22;11525;51.152;4.456;2023-12-20T10:16:32;10.70;99.90
22716;DHT22;11525;51.152;4.456;2023-12-20T10:18:59;10.20;99.90
22716;DHT22;11525;51.152;4.456;2023-12-20T10:21:26;9.80;99.90
22716;DHT22;11525;51.152;4.456;2023-12-20T10:23:54;9.40;99.90
22716;DHT22;11525;51.152;4.456;2023-12-20T10:28:53;9.60;99.90
22716;DHT22;11525;51.152;4.456;2023-12-20T10:31:32;9.60;99.90
22716;DHT22;11525;51.152;4.456;2023-12-20T10:33:59;9.50;99.90
22716;DHT22;11525;51.152;4.456;2023-12-20T10:36:26;9.50;99.90
22716;DHT22;11525;51.152;4.456;2023-12-20T10:38:53;9.60;99.90
22716;DHT22;11525;51.152;4.456;2023-12-20T10:41:27;9.60;99.90
22716;DHT22;11525;51.152;4.456;2023-12-20T10:43:56;9.60;99.90
22716;DHT22;11525;51.152;4.456;2023-12-20T10:46:24;9.50;99.90
22716;DHT22;11525;51.152;4.456;2023-12-20T10:48:53;9.40;99.90
22716;DHT22;11525;51.152;4.456;2023-12-20T10:51:20;9.40;99.90
22716;DHT22;11525;51.152;4.456;2023-12-20T10:53:50;9.40;99.90
22716;DHT22;11525;51.152;4.456;2023-12-20T10:56:17;9.20;99.90
22716;DHT22;11525;51.152;4.456;2023-12-20T10:58:48;9.40;99.90
22716;DHT22;11525;51.152;4.456;2023-12-20T11:01:16;9.30;99.90
22716;DHT22;11525;51.152;4.456;2023-12-20T11:03:49;9.30;99.90
22716;DHT22;11525;51.152;4.456;2023-12-20T11:06:36;9.10;99.90
22716;DHT22;11525;51.152;4.456;2023-12-20T11:09:24;9.30;99.90
22716;DHT22;11525;51.152;4.456;2023-12-20T11:14:46;9.10;99.90
22716;DHT22;11525;51.152;4.456;2023-12-20T11:17:12;9.20;99.90
22716;DHT22;11525;51.152;4.456;2023-12-20T11:22:20;9.00;99.90
22716;DHT22;11525;51.152;4.456;2023-12-20T11:24:47;8.90;99.90
22716;DHT22;11525;51.152;4.456;2023-12-20T11:27:13;8.80;99.90
22716;DHT22;11525;51.152;4.456;2023-12-20T11:29:39;8.80;99.90
22716;DHT22;11525;51.152;4.456;2023-12-20T11:35:01;8.90;99.90
22716;DHT22;11525;51.152;4.456;2023-12-20T11:37:41;9.00;99.90
22716;DHT22;11525;51.152;4.456;2023-12-20T11:40:11;8.80;99.90
22716;DHT22;11525;51.152;4.456;2023-12-20T11:42:42;9.00;99.90
22716;DHT22;11525;51.152;4.456;2023-12-20T11:45:09;9.00;99.90
22716;DHT22;11525;51.152;4.456;2023-12-20T11:47:36;8.90;99.90
22716;DHT22;11525;51.152;4.456;2023-12-20T11:50:02;8.90;99.90
22716;DHT22;11525;51.152;4.456;2023-12-20T11:52:29;8.80;99.90
22716;DHT22;11525;51.152;4.456;2023-12-20T11:54:56;8.60;99.90
22716;DHT22;11525;51.152;4.456;2023-12-20T11:57:22;8.60;99.90
22716;DHT22;11525;51.152;4.456;2023-12-20T11:59:48;8.60;99.90
22716;DHT22;11525;51.152;4.456;2023-12-20T12:02:14;8.70;99.90
22716;DHT22;11525;51.152;4.456;2023-12-20T12:04:43;8.70;99.90
22716;DHT22;11525;51.152;4.456;2023-12-20T12:07:09;8.70;99.90
22716;DHT22;11525;51.152;4.456;2023-12-20T12:09:35;8.60;99.90
22716;DHT22;11525;51.152;4.456;2023-12-20T12:12:01;8.50;99.90
22716;DHT22;11525;51.152;4.456;2023-12-20T12:14:27;8.40;99.90
22716;DHT22;11525;51.152;4.456;2023-12-20T12:16:53;8.50;99.90
22716;DHT22;11525;51.152;4.456;2023-12-20T12:19:23;8.60;99.90
22716;DHT22;11525;51.152;4.456;2023-12-20T12:22:07;8.80;99.90
22716;DHT22;11525;51.152;4.456;2023-12-20T12:24:34;8.90;99.90
22716;DHT22;11525;51.152;4.456;2023-12-20T12:27:00;8.90;99.90
22716;DHT22;11525;51.152;4.456;2023-12-20T12:29:27;8.80;99.90
22716;DHT22;11525;51.152;4.456;2023-12-20T12:31:53;9.00;99.90
22716;DHT22;11525;51.152;4.456;2023-12-20T12:34:19;9.10;99.90
22716;DHT22;11525;51.152;4.456;2023-12-20T12:36:44;9.20;99.90
22716;DHT22;11525;51.152;4.456;2023-12-20T12:39:15;9.30;99.90
22716;DHT22;11525;51.152;4.456;2023-12-20T12:41:41;9.40;99.90
22716;DHT22;11525;51.152;4.456;2023-12-20T12:44:07;9.50;99.90
22716;DHT22;11525;51.152;4.456;2023-12-20T12:46:32;9.60;99.90
22716;DHT22;11525;51.152;4.456;2023-12-20T12:48:58;9.60;99.90
22716;DHT22;11525;51.152;4.456;2023-12-20T12:51:25;9.60;99.90
22716;DHT22;11525;51.152;4.456;2023-12-20T12:53:51;9.60;99.90
22716;DHT22;11525;51.152;4.456;2023-12-20T12:56:16;9.70;99.90
22716;DHT22;11525;51.152;4.456;2023-12-20T12:58:42;9.60;99.90
22716;DHT22;11525;51.152;4.456;2023-12-20T13:01:08;9.60;99.90
22716;DHT22;11525;51.152;4.456;2023-12-20T13:03:35;9.70;99.90
22716;DHT22;11525;51.152;4.456;2023-12-20T13:06:01;9.70;99.90
22716;DHT22;11525;51.152;4.456;2023-12-20T13:08:27;9.80;99.90
22716;DHT22;11525;51.152;4.456;2023-12-20T13:10:53;9.80;99.90
22716;DHT22;11525;51.152;4.456;2023-12-20T13:13:19;9.80;99.90
22716;DHT22;11525;51.152;4.456;2023-12-20T13:15:45;9.80;99.90
22716;DHT22;11525;51.152;4.456;2023-12-20T13:18:16;9.80;99.90
22716;DHT22;11525;51.152;4.456;2023-12-20T13:20:43;9.80;99.90
22716;DHT22;11525;51.152;4.456;2023-12-20T13:23:09;9.70;99.90
22716;DHT22;11525;51.152;4.456;2023-12-20T13:25:35;9.60;99.90
22716;DHT22;11525;51.152;4.456;2023-12-20T13:28:01;9.60;99.90
22716;DHT22;11525;51.152;4.456;2023-12-20T13:30:28;9.70;99.90
22716;DHT22;11525;51.152;4.456;2023-12-20T13:32:54;9.90;99.90
22716;DHT22;11525;51.152;4.456;2023-12-20T13:35:20;9.80;99.90
22716;DHT22;11525;51.152;4.456;2023-12-20T13:37:46;9.80;99.90
22716;DHT22;11525;51.152;4.456;2023-12-20T13:40:12;9.70;99.90
22716;DHT22;11525;51.152;4.456;2023-12-20T13:42:38;9.70;99.90
22716;DHT22;11525;51.152;4.456;2023-12-20T13:45:05;9.70;99.90
22716;DHT22;11525;51.152;4.456;2023-12-20T13:47:32;9.80;99.90
22716;DHT22;11525;51.152;4.456;2023-12-20T13:49:57;9.80;99.90
22716;DHT22;11525;51.152;4.456;2023-12-20T13:52:23;9.80;99.90
22716;DHT22;11525;51.152;4.456;2023-12-20T13:54:49;9.80;99.90
22716;DHT22;11525;51.152;4.456;2023-12-20T13:57:15;9.60;99.90
22716;DHT22;11525;51.152;4.456;2023-12-20T13:59:40;9.80;99.90
22716;DHT22;11525;51.152;4.456;2023-12-20T14:02:06;9.70;99.90
22716;DHT22;11525;51.152;4.456;2023-12-20T14:04:32;9.60;99.90
22716;DHT22;11525;51.152;4.456;2023-12-20T14:06:58;9.70;99.90
22716;DHT22;11525;51.152;4.456;2023-12-20T14:09:24;9.80;99.90
22716;DHT22;11525;51.152;4.456;2023-12-20T14:11:50;9.80;99.90
22716;DHT22;11525;51.152;4.456;2023-12-20T14:14:16;9.90;99.90
22716;DHT22;11525;51.152;4.456;2023-12-20T14:16:41;10.10;99.90
22716;DHT22;11525;51.152;4.456;2023-12-20T14:19:10;10.20;99.90
22716;DHT22;11525;51.152;4.456;2023-12-20T14:21:36;10.10;99.90
22716;DHT22;11525;51.152;4.456;2023-12-20T14:24:02;10.10;99.90
22716;DHT22;11525;51.152;4.456;2023-12-20T14:26:29;9.90;99.90
22716;DHT22;11525;51.152;4.456;2023-12-20T14:28:57;9.90;99.90
22716;DHT22;11525;51.152;4.456;2023-12-20T14:31:23;10.00;99.90
22716;DHT22;11525;51.152;4.456;2023-12-20T14:33:50;10.10;99.90
22716;DHT22;11525;51.152;4.456;2023-12-20T14:36:18;10.00;99.90
22716;DHT22;11525;51.152;4.456;2023-12-20T14:38:45;10.10;99.90
22716;DHT22;11525;51.152;4.456;2023-12-20T14:41:12;10.10;99.90
22716;DHT22;11525;51.152;4.456;2023-12-20T14:43:38;10.00;99.90
22716;DHT22;11525;51.152;4.456;2023-12-20T14:46:04;10.00;99.90
22716;DHT22;11525;51.152;4.456;2023-12-20T14:48:31;10.00;99.90
22716;DHT22;11525;51.152;4.456;2023-12-20T14:50:57;10.10;99.90
22716;DHT22;11525;51.152;4.456;2023-12-20T14:53:24;10.00;99.90
22716;DHT22;11525;51.152;4.456;2023-12-20T14:55:50;9.90;99.90
22716;DHT22;11525;51.152;4.456;2023-12-20T14:58:17;9.80;99.90
22716;DHT22;11525;51.152;4.456;2023-12-20T15:00:42;9.90;99.90
22716;DHT22;11525;51.152;4.456;2023-12-20T15:03:09;10.00;99.90
22716;DHT22;11525;51.152;4.456;2023-12-20T15:05:35;10.10;99.90
22716;DHT22;11525;51.152;4.456;2023-12-20T15:08:01;10.00;99.90
22716;DHT22;11525;51.152;4.456;2023-12-20T15:10:30;10.10;99.90
22716;DHT22;11525;51.152;4.456;2023-12-20T15:12:56;10.10;99.90
22716;DHT22;11525;51.152;4.456;2023-12-20T15:15:22;10.10;99.90
22716;DHT22;11525;51.152;4.456;2023-12-20T15:17:47;10.00;99.90
22716;DHT22;11525;51.152;4.456;2023-12-20T15:20:13;10.00;99.90
22716;DHT22;11525;51.152;4.456;2023-12-20T15:22:44;10.10;99.90
22716;DHT22;11525;51.152;4.456;2023-12-20T15:25:13;10.40;99.90
22716;DHT22;11525;51.152;4.456;2023-12-20T15:27:46;10.30;99.90
22716;DHT22;11525;51.152;4.456;2023-12-20T15:30:14;10.50;99.90
22716;DHT22;11525;51.152;4.456;2023-12-20T15:32:40;10.50;99.90
22716;DHT22;11525;51.152;4.456;2023-12-20T15:35:06;10.40;99.90
22716;DHT22;11525;51.152;4.456;2023-12-20T15:37:32;10.30;99.90
22716;DHT22;11525;51.152;4.456;2023-12-20T15:39:58;10.40;99.90
22716;DHT22;11525;51.152;4.456;2023-12-20T15:42:24;10.40;99.90
22716;DHT22;11525;51.152;4.456;2023-12-20T15:44:50;10.30;99.90
22716;DHT22;11525;51.152;4.456;2023-12-20T15:47:16;10.10;99.90
22716;DHT22;11525;51.152;4.456;2023-12-20T15:49:42;10.30;99.90